METAR Data
IDs: Format: Raw Decoded Include TAF

Data at: 0737 UTC 01 Aug 2021

KOXC 010651Z AUTO 00000KT 10SM CLR 13/13 A2996 RMK AO2 SLP154 T01280128
KOXC 010551Z AUTO 00000KT 10SM CLR 13/13 A2997 RMK AO2 SLP159 T01280128 10200 20122 58003
KOXC 010451Z AUTO 05003KT 10SM CLR 13/13 A2997 RMK AO2 SLP161 T01280128 402220094
KOXC 010351Z AUTO 00000KT 10SM CLR 13/13 A2998 RMK AO2 SLP162 T01280128
KOXC 010251Z AUTO 09003KT 10SM CLR 14/13 A2998 RMK AO2 SLP163 T01440133 50006
KOXC 010151Z AUTO 00000KT 10SM CLR 15/15 A2998 RMK AO2 SLP164 T01500150
KOXC 010051Z 00000KT 10SM CLR 16/15 A2997 RMK AO2 SLP159 T01610150
KOXC 312351Z 00000KT 10SM CLR 20/12 A2996 RMK AO2 SLP156 T02000117 10222 20200 55003
KOXC 312251Z 30003KT 10SM FEW045 21/12 A2996 RMK AO2 SLP155 T02060117
KOXC 312151Z 31005KT 10SM FEW050 22/11 A2996 RMK AO2 SLP156 T02170111
KOXC 312051Z 30006KT 10SM SCT055 22/10 A2997 RMK AO2 SLP160 T02170100 58002
KOXC 311951Z 31007KT 10SM FEW055 22/09 A2998 RMK AO2 SLP160 T02170089
KOXC 311851Z 27008KT 220V290 10SM FEW045 21/09 A2998 RMK AO2 SLP161 T02110089
KOXC 311751Z VRB04KT 10SM FEW040 21/09 A2998 RMK AO2 SLP161 T02060094 10206 20139 58008
KOXC 311651Z VRB06KT 10SM SCT045 19/10 A3000 RMK AO2 SLP167 T01940100
KOXC 311551Z 30005KT 10SM SCT041 19/09 A3001 RMK AO2 SLP170 T01890094
KOXC 311351Z 30009G14KT 270V340 10SM CLR 17/09 A3001 RMK AO2 SLP172 T01720089
KOXC 310451Z AUTO 31004KT 10SM CLR 15/09 A2998 RMK AO2 SLP161 T01500089 402610144
KOXC 310351Z AUTO 33009KT 10SM CLR 16/10 A2998 RMK AO2 SLP159 T01610100
KOXC 310251Z AUTO 32008KT 10SM CLR 17/11 A2996 RMK AO2 SLP155 T01670106 51027
KOXC 310151Z AUTO 33004KT 10SM CLR 17/10 A2995 RMK AO2 SLP149 T01720100
KOXC 310051Z 34010KT 10SM CLR 18/09 A2991 RMK AO2 SLP136 T01830094
KOXC 302351Z 32008KT 10SM CLR 21/09 A2988 RMK AO2 SLP126 T02060094 10261 20206 53022
KOXC 302251Z 32010G16KT 10SM FEW065 22/11 A2985 RMK AO2 SLP116 T02220111
KOXC 302151Z 33013G18KT 10SM SCT065 24/12 A2983 RMK AO2 SLP110 T02390117
KOXC 302051Z 32009G18KT 10SM SCT050 24/14 A2982 RMK AO2 SLP104 T02440139 53009
KOXC 301951Z 32009G17KT 280V350 10SM SCT065 26/15 A2980 RMK AO2 SLP099 T02560150